08D

Stanley Municipal Airport

Stanley, North Dakota, USA
METAR K08D 151215Z AUTO 00000KT 10SM 11/10 A2998 RMK AO2
Observed Flight Rules
Aug-15 @ 12:15 UTC (24 minutes ago)
Visibility
10 miles
Temperatures Readings
Current 11°C / 52°F
Dewpoint 10°C / 50°F
Humidity 94%
Altimeter 29.98" Hg
Pressure 1015 hPa
Elevation 684
METAR K08D 151215Z AUTO 00000KT 10SM 11/10 A2998 RMK AO2
Observed Flight Rules
Aug-15 @ 12:15 UTC
(24 minutes ago)
Temperature Dewpoint
11°C / 52°F 10°C / 50°F
Humidity Altimeter Pressure
94% 29.98" Hg 1015 hPa